createdAt,value
2018-03-20T00:00:06.187Z,7.10
2018-03-20T00:01:06.130Z,7.40
2018-03-20T00:02:06.100Z,7.20
2018-03-20T00:03:06.063Z,7.10
2018-03-20T00:04:05.994Z,7.30
2018-03-20T00:05:05.945Z,7.10
2018-03-20T00:06:05.893Z,7.50
2018-03-20T00:07:05.842Z,7.10
2018-03-20T00:08:05.822Z,7.30
2018-03-20T00:09:05.754Z,7.00
2018-03-20T00:10:05.704Z,7.70
2018-03-20T00:11:05.653Z,7.40
2018-03-20T00:12:05.612Z,7.90
2018-03-20T00:13:05.544Z,8.00
2018-03-20T00:14:05.534Z,7.40
2018-03-20T00:15:05.453Z,7.60
2018-03-20T00:16:05.411Z,7.80
2018-03-20T00:17:05.357Z,7.60
2018-03-20T00:18:05.314Z,7.20
2018-03-20T00:19:05.260Z,7.60
2018-03-20T00:20:05.237Z,7.60
2018-03-20T00:21:05.159Z,7.80
2018-03-20T00:22:05.108Z,8.40
2018-03-20T00:23:05.067Z,7.90
2018-03-20T00:24:05.023Z,8.30
2018-03-20T00:25:04.968Z,7.70
2018-03-20T00:26:04.949Z,7.90
2018-03-20T00:27:04.865Z,8.50
2018-03-20T00:28:04.835Z,7.90
2018-03-20T00:29:04.780Z,8.00
2018-03-20T00:30:04.720Z,8.00
2018-03-20T00:31:04.703Z,8.30
2018-03-20T00:32:04.630Z,8.30
2018-03-20T00:33:04.588Z,8.20
2018-03-20T00:34:04.529Z,8.10
2018-03-20T00:35:04.481Z,8.20
2018-03-20T00:36:04.438Z,8.10
2018-03-20T00:37:04.411Z,8.20
2018-03-20T00:38:04.340Z,8.50
2018-03-20T00:39:04.289Z,8.10
2018-03-20T00:40:04.244Z,8.10
2018-03-20T00:41:04.197Z,7.90
2018-03-20T00:42:04.145Z,8.30
2018-03-20T00:43:04.119Z,8.30
2018-03-20T00:44:04.044Z,8.80
2018-03-20T00:45:04.000Z,8.40
2018-03-20T00:46:03.948Z,8.40
2018-03-20T00:47:03.923Z,8.30
2018-03-20T00:48:03.880Z,8.60
2018-03-20T00:49:03.811Z,8.40
2018-03-20T00:50:03.744Z,8.00
2018-03-20T00:51:03.713Z,8.20
2018-03-20T00:52:03.649Z,8.10
2018-03-20T00:53:03.604Z,8.10
2018-03-20T00:54:03.585Z,8.70
2018-03-20T00:55:03.517Z,7.90
2018-03-20T00:56:03.464Z,8.40
2018-03-20T00:57:03.420Z,8.00
2018-03-20T00:58:03.367Z,8.30
2018-03-20T00:59:03.337Z,8.10
2018-03-20T01:00:03.298Z,8.30
2018-03-20T01:01:03.218Z,8.20
2018-03-20T01:02:03.168Z,8.00
2018-03-20T01:03:03.127Z,8.60
2018-03-20T01:04:03.065Z,8.30
2018-03-20T01:05:03.059Z,8.60
2018-03-20T01:06:02.976Z,8.70
2018-03-20T01:07:02.930Z,8.50
2018-03-20T01:08:02.870Z,9.10
2018-03-20T01:09:02.829Z,8.60
2018-03-20T01:10:02.802Z,8.60
2018-03-20T01:11:02.728Z,8.50
2018-03-20T01:12:02.682Z,8.70
2018-03-20T01:13:02.632Z,8.90
2018-03-20T01:14:02.571Z,8.60
2018-03-20T01:15:02.534Z,9.10
2018-03-20T01:16:02.510Z,8.90
2018-03-20T01:17:02.432Z,8.90
2018-03-20T01:18:02.387Z,8.80
2018-03-20T01:19:02.330Z,9.10
2018-03-20T01:20:02.286Z,9.10
2018-03-20T01:21:02.239Z,9.20
2018-03-20T01:22:02.208Z,9.20
2018-03-20T01:23:02.148Z,8.20
2018-03-20T01:24:02.092Z,8.80
2018-03-20T01:25:02.039Z,9.30
2018-03-20T01:26:01.992Z,8.60
2018-03-20T01:27:01.971Z,9.20
2018-03-20T01:28:01.919Z,9.00
2018-03-20T01:29:01.843Z,9.00
2018-03-20T01:30:01.800Z,9.20
2018-03-20T01:31:01.749Z,8.90
2018-03-20T01:32:01.707Z,9.00
2018-03-20T01:33:01.655Z,8.10
2018-03-20T01:34:01.633Z,8.60
2018-03-20T01:35:01.558Z,8.80
2018-03-20T01:36:01.495Z,9.10
2018-03-20T01:37:01.455Z,8.70
2018-03-20T01:38:01.415Z,8.90
2018-03-20T01:39:01.362Z,9.10
2018-03-20T01:40:01.352Z,9.50
2018-03-20T01:41:01.261Z,9.30
2018-03-20T01:42:01.209Z,8.80
2018-03-20T01:43:01.153Z,8.90
2018-03-20T01:44:01.114Z,9.10
2018-03-20T01:45:01.104Z,9.40
2018-03-20T01:46:01.049Z,8.90
2018-03-20T01:47:00.964Z,8.90
2018-03-20T01:48:00.912Z,9.30
2018-03-20T01:49:00.874Z,8.30
2018-03-20T01:50:00.822Z,9.60
2018-03-20T01:51:00.805Z,9.30
2018-03-20T01:52:00.720Z,8.90
2018-03-20T01:53:00.674Z,8.80
2018-03-20T01:54:00.618Z,9.20
2018-03-20T01:55:00.580Z,8.80
2018-03-20T01:56:00.556Z,9.10
2018-03-20T01:57:00.526Z,8.70
2018-03-20T01:58:00.420Z,8.40
2018-03-20T01:59:00.378Z,8.50
2018-03-20T02:00:00.327Z,8.60
2018-03-20T02:01:00.277Z,8.90
2018-03-20T02:02:00.258Z,8.90
2018-03-20T02:03:00.169Z,9.10
2018-03-20T02:04:00.171Z,9.10
2018-03-20T02:05:00.079Z,8.60
2018-03-20T02:06:00.034Z,8.80
2018-03-20T02:06:59.989Z,8.60
2018-03-20T02:07:59.964Z,8.60
2018-03-20T02:08:59.884Z,8.70
2018-03-20T02:09:59.847Z,9.60
2018-03-20T02:10:59.787Z,9.00
2018-03-20T02:11:59.742Z,8.90
2018-03-20T02:12:59.688Z,8.20
2018-03-20T02:13:59.665Z,8.80
2018-03-20T02:14:59.608Z,7.90
2018-03-20T02:15:59.558Z,9.00
2018-03-20T02:16:59.497Z,9.60
2018-03-20T02:17:59.440Z,8.80
2018-03-20T02:18:59.453Z,8.90
2018-03-20T02:19:59.340Z,9.30
2018-03-20T02:20:59.311Z,9.20
2018-03-20T02:21:59.248Z,8.90
2018-03-20T02:22:59.199Z,9.20
2018-03-20T02:23:59.154Z,9.50
2018-03-20T02:24:59.139Z,9.20
2018-03-20T02:25:59.050Z,9.20
2018-03-20T02:26:59.009Z,9.40
2018-03-20T02:27:58.962Z,9.50
2018-03-20T02:28:58.961Z,8.70
2018-03-20T02:29:58.865Z,9.60
2018-03-20T02:30:58.842Z,9.50
2018-03-20T02:31:58.761Z,9.50
2018-03-20T02:32:58.730Z,9.40
2018-03-20T02:33:58.673Z,9.50
2018-03-20T02:34:58.617Z,9.80
2018-03-20T02:35:58.564Z,9.20
2018-03-20T02:36:58.541Z,9.00
2018-03-20T02:37:58.477Z,9.60
2018-03-20T02:38:58.431Z,9.30
2018-03-20T02:39:58.373Z,9.80
2018-03-20T02:40:58.319Z,9.80
2018-03-20T02:41:58.309Z,9.40
2018-03-20T02:42:58.243Z,9.20
2018-03-20T02:43:58.181Z,10.00
2018-03-20T02:44:58.157Z,9.80
2018-03-20T02:45:58.094Z,9.60
2018-03-20T02:46:58.032Z,9.60
2018-03-20T02:47:58.012Z,9.30
2018-03-20T02:48:57.952Z,9.50
2018-03-20T02:49:57.888Z,9.60
2018-03-20T02:50:57.848Z,8.70
2018-03-20T02:51:57.846Z,9.60
2018-03-20T02:52:57.753Z,9.10
2018-03-20T02:53:57.734Z,9.20
2018-03-20T02:54:57.678Z,9.50
2018-03-20T02:55:57.625Z,9.20
2018-03-20T02:56:57.558Z,8.50
2018-03-20T02:57:57.505Z,9.20
2018-03-20T02:58:57.506Z,9.50
2018-03-20T02:59:57.417Z,9.40
2018-03-20T03:00:57.372Z,9.80
2018-03-20T03:01:57.319Z,9.10
2018-03-20T03:02:57.270Z,9.30
2018-03-20T03:03:57.222Z,9.20
2018-03-20T03:04:57.211Z,9.40
2018-03-20T03:05:57.125Z,9.30
2018-03-20T03:06:57.077Z,9.40
2018-03-20T03:07:57.043Z,9.10
2018-03-20T03:08:56.984Z,9.60
2018-03-20T03:09:56.937Z,9.50
2018-03-20T03:10:56.951Z,9.30
2018-03-20T03:11:56.845Z,9.50
2018-03-20T03:12:56.814Z,8.90
2018-03-20T03:13:56.761Z,9.90
2018-03-20T03:14:56.734Z,8.70
2018-03-20T03:15:56.697Z,9.50
2018-03-20T03:16:56.612Z,9.30
2018-03-20T03:17:56.560Z,9.30
2018-03-20T03:18:56.509Z,9.60
2018-03-20T03:19:56.458Z,9.30
2018-03-20T03:20:56.411Z,10.00
2018-03-20T03:21:56.396Z,8.90
2018-03-20T03:22:56.321Z,9.70
2018-03-20T03:23:56.282Z,9.10
2018-03-20T03:24:56.233Z,9.50
2018-03-20T03:25:56.173Z,9.80
2018-03-20T03:26:56.133Z,9.40
2018-03-20T03:27:56.109Z,10.00
2018-03-20T03:28:56.037Z,9.70
2018-03-20T03:29:55.990Z,10.10
2018-03-20T03:30:55.950Z,10.00
2018-03-20T03:31:55.903Z,10.10
2018-03-20T03:32:55.850Z,10.40
2018-03-20T03:33:55.830Z,10.30
2018-03-20T03:34:55.755Z,10.20
2018-03-20T03:35:55.706Z,10.20
2018-03-20T03:36:55.664Z,10.40
2018-03-20T03:37:55.610Z,10.30
2018-03-20T03:38:55.601Z,10.10
2018-03-20T03:39:55.520Z,10.80
2018-03-20T03:40:55.472Z,10.50
2018-03-20T03:41:55.436Z,10.60
2018-03-20T03:42:55.381Z,10.50
2018-03-20T03:43:55.372Z,10.80
2018-03-20T03:44:55.287Z,10.10
2018-03-20T03:45:55.242Z,10.60
2018-03-20T03:46:55.192Z,10.00
2018-03-20T03:47:55.151Z,11.00
2018-03-20T03:48:55.105Z,10.60
2018-03-20T03:49:55.085Z,11.10
2018-03-20T03:50:55.012Z,10.70
2018-03-20T03:51:54.963Z,10.90
2018-03-20T03:52:54.910Z,10.70
2018-03-20T03:53:54.868Z,10.50
2018-03-20T03:54:54.818Z,10.80
2018-03-20T03:55:54.798Z,10.90
2018-03-20T03:56:54.728Z,11.20
2018-03-20T03:57:54.686Z,11.10
2018-03-20T03:58:54.638Z,11.20
2018-03-20T03:59:54.586Z,10.60
2018-03-20T04:00:54.565Z,11.10
2018-03-20T04:01:54.502Z,11.20
2018-03-20T04:02:54.451Z,11.60
2018-03-20T04:03:54.412Z,11.20
2018-03-20T04:04:54.362Z,11.30
2018-03-20T04:05:54.323Z,12.20
2018-03-20T04:06:54.288Z,12.30
2018-03-20T04:07:54.227Z,11.50
2018-03-20T04:08:54.164Z,12.30
2018-03-20T04:09:54.120Z,12.00
2018-03-20T04:10:54.078Z,12.20
2018-03-20T04:11:54.035Z,11.90
2018-03-20T04:12:54.010Z,12.20
2018-03-20T04:13:53.946Z,12.90
2018-03-20T04:14:53.894Z,13.50
2018-03-20T04:15:53.851Z,13.40
2018-03-20T04:16:53.799Z,12.90
2018-03-20T04:17:53.827Z,12.60
2018-03-20T04:18:53.706Z,13.10
2018-03-20T04:19:53.662Z,13.40
2018-03-20T04:20:53.613Z,12.60
2018-03-20T04:21:53.567Z,12.60
2018-03-20T04:22:53.519Z,12.70
2018-03-20T04:23:53.500Z,12.40
2018-03-20T04:24:53.426Z,12.10
2018-03-20T04:25:53.387Z,12.60
2018-03-20T04:26:53.334Z,12.50
2018-03-20T04:27:53.290Z,12.50
2018-03-20T04:28:53.249Z,11.90
2018-03-20T04:29:53.221Z,12.90
2018-03-20T04:30:53.150Z,11.90
2018-03-20T04:31:53.098Z,12.30
2018-03-20T04:32:53.050Z,12.40
2018-03-20T04:33:53.010Z,12.40
2018-03-20T04:34:52.991Z,12.40
2018-03-20T04:35:52.927Z,12.00
2018-03-20T04:36:52.865Z,12.20
2018-03-20T04:37:52.828Z,11.70
2018-03-20T04:38:52.781Z,11.90
2018-03-20T04:39:52.731Z,12.90
2018-03-20T04:40:52.708Z,12.10
2018-03-20T04:41:52.640Z,12.60
2018-03-20T04:42:52.597Z,13.10
2018-03-20T04:43:52.563Z,12.50
2018-03-20T04:44:52.498Z,12.50
2018-03-20T04:45:52.454Z,12.00
2018-03-20T04:46:52.431Z,13.90
2018-03-20T04:47:52.364Z,13.40
2018-03-20T04:48:52.310Z,13.80
2018-03-20T04:49:52.267Z,13.50
2018-03-20T04:50:52.220Z,14.70
2018-03-20T04:51:52.175Z,14.00
2018-03-20T04:52:52.152Z,14.20
2018-03-20T04:53:52.090Z,13.30
2018-03-20T04:54:52.040Z,13.70
2018-03-20T04:55:51.988Z,12.90
2018-03-20T04:56:51.937Z,12.70
2018-03-20T04:57:51.913Z,13.50
2018-03-20T04:58:51.844Z,13.60
2018-03-20T04:59:51.800Z,13.60
2018-03-20T05:00:51.756Z,13.80
2018-03-20T05:01:51.705Z,14.00
2018-03-20T05:02:51.683Z,13.10
2018-03-20T05:03:51.608Z,13.50
2018-03-20T05:04:51.566Z,12.80
2018-03-20T05:05:51.517Z,13.20
2018-03-20T05:06:51.477Z,13.20
2018-03-20T05:07:51.436Z,13.10
2018-03-20T05:08:51.414Z,12.30
2018-03-20T05:09:51.330Z,13.20
2018-03-20T05:10:51.281Z,12.80
2018-03-20T05:11:51.245Z,12.90
2018-03-20T05:12:51.200Z,13.20
2018-03-20T05:13:51.146Z,14.00
2018-03-20T05:14:51.125Z,14.00
2018-03-20T05:15:51.056Z,13.50
2018-03-20T05:16:51.004Z,13.80
2018-03-20T05:17:50.967Z,13.80
2018-03-20T05:18:50.950Z,14.20
2018-03-20T05:19:50.887Z,13.50
2018-03-20T05:20:50.820Z,13.90
2018-03-20T05:21:50.773Z,14.70
2018-03-20T05:22:50.732Z,14.10
2018-03-20T05:23:50.676Z,13.40
2018-03-20T05:24:50.663Z,13.70
2018-03-20T05:25:50.583Z,14.20
2018-03-20T05:26:50.544Z,15.10
2018-03-20T05:27:50.498Z,13.80
2018-03-20T05:28:50.448Z,14.00
2018-03-20T05:29:50.404Z,14.00
2018-03-20T05:30:50.374Z,14.30
2018-03-20T05:31:50.306Z,13.80
2018-03-20T05:32:50.268Z,13.80
2018-03-20T05:33:50.214Z,14.10
2018-03-20T05:34:50.173Z,13.90
2018-03-20T05:35:50.150Z,14.60
2018-03-20T05:36:50.073Z,13.30
2018-03-20T05:37:50.044Z,14.00
2018-03-20T05:38:49.975Z,14.50
2018-03-20T05:39:49.935Z,14.00
2018-03-20T05:40:49.886Z,13.60
2018-03-20T05:41:49.881Z,14.40
2018-03-20T05:42:49.796Z,14.30
2018-03-20T05:43:49.756Z,13.90
2018-03-20T05:44:49.706Z,14.20
2018-03-20T05:45:49.655Z,14.00
2018-03-20T05:46:49.616Z,14.30
2018-03-20T05:47:49.592Z,14.80
2018-03-20T05:48:49.514Z,14.10
2018-03-20T05:49:49.478Z,13.70
2018-03-20T05:50:49.420Z,14.80
2018-03-20T05:51:49.377Z,14.80
2018-03-20T05:52:49.386Z,15.00
2018-03-20T05:53:49.298Z,14.50
2018-03-20T05:54:49.242Z,14.10
2018-03-20T05:55:49.183Z,14.60
2018-03-20T05:56:49.149Z,15.00
2018-03-20T05:57:49.102Z,14.90
2018-03-20T05:58:49.077Z,15.10
2018-03-20T05:59:49.001Z,15.10
2018-03-20T06:00:48.958Z,16.30
2018-03-20T06:01:48.908Z,15.90
2018-03-20T06:02:48.874Z,16.20
2018-03-20T06:03:48.855Z,15.60
2018-03-20T06:04:48.818Z,15.70
2018-03-20T06:05:48.720Z,16.80
2018-03-20T06:06:48.688Z,16.90
2018-03-20T06:07:48.671Z,17.70
2018-03-20T06:08:48.593Z,17.50
2018-03-20T06:09:48.564Z,18.10
2018-03-20T06:10:48.496Z,19.10
2018-03-20T06:11:48.450Z,19.90
2018-03-20T06:12:48.396Z,20.20
2018-03-20T06:13:48.407Z,19.30
2018-03-20T06:14:48.339Z,20.00
2018-03-20T06:15:48.259Z,19.40
2018-03-20T06:16:48.220Z,20.70
2018-03-20T06:17:48.182Z,20.70
2018-03-20T06:18:48.127Z,19.70
2018-03-20T06:19:48.075Z,20.30
2018-03-20T06:20:48.066Z,20.70
2018-03-20T06:21:47.986Z,19.40
2018-03-20T06:22:47.953Z,19.40
2018-03-20T06:23:47.906Z,20.00
2018-03-20T06:24:47.850Z,19.30
2018-03-20T06:25:47.820Z,20.00
2018-03-20T06:26:47.780Z,19.40
2018-03-20T06:27:47.701Z,19.50
2018-03-20T06:28:47.662Z,19.20
2018-03-20T06:29:47.602Z,18.50
2018-03-20T06:30:47.611Z,18.40
2018-03-20T06:31:47.513Z,19.60
2018-03-20T06:32:47.479Z,18.50
2018-03-20T06:33:47.419Z,18.40
2018-03-20T06:34:47.386Z,20.20
2018-03-20T06:35:47.337Z,19.60
2018-03-20T06:36:47.335Z,19.30
2018-03-20T06:37:47.235Z,18.90
2018-03-20T06:38:47.209Z,18.80
2018-03-20T06:39:47.153Z,18.90
2018-03-20T06:40:47.124Z,19.40
2018-03-20T06:41:47.060Z,19.20
2018-03-20T06:42:47.040Z,21.50
2018-03-20T06:43:46.958Z,19.90
2018-03-20T06:44:46.923Z,16.90
2018-03-20T06:45:46.871Z,14.90
2018-03-20T06:46:46.821Z,13.70
2018-03-20T06:47:46.832Z,13.70
2018-03-20T06:48:46.736Z,14.20
2018-03-20T06:49:46.692Z,13.80
2018-03-20T06:50:46.646Z,14.90
2018-03-20T06:51:46.599Z,14.10
2018-03-20T06:52:46.546Z,14.10
2018-03-20T06:53:46.541Z,13.80
2018-03-20T06:54:46.458Z,14.90
2018-03-20T06:55:46.409Z,13.80
2018-03-20T06:56:46.362Z,15.00
2018-03-20T06:57:46.315Z,15.40
2018-03-20T06:58:46.278Z,15.30
2018-03-20T06:59:46.254Z,16.20
2018-03-20T07:00:46.187Z,15.00
2018-03-20T07:01:46.135Z,14.80
2018-03-20T07:02:46.095Z,15.10
2018-03-20T07:03:46.045Z,15.40
2018-03-20T07:04:46.000Z,15.00
2018-03-20T07:05:45.986Z,15.90
2018-03-20T07:06:45.911Z,15.40
2018-03-20T07:07:45.867Z,15.80
2018-03-20T07:08:45.819Z,15.80
2018-03-20T07:09:45.770Z,15.10
2018-03-20T07:10:45.732Z,16.90
2018-03-20T07:11:45.728Z,16.00
2018-03-20T07:12:45.641Z,17.50
2018-03-20T07:13:45.600Z,16.70
2018-03-20T07:14:45.546Z,16.60
2018-03-20T07:15:45.508Z,17.50
2018-03-20T07:16:45.471Z,18.20
2018-03-20T07:17:45.445Z,19.80
2018-03-20T07:18:45.369Z,19.70
2018-03-20T07:19:45.325Z,21.60
2018-03-20T07:20:45.283Z,21.20
2018-03-20T07:21:45.296Z,22.50
2018-03-20T07:22:45.219Z,23.30
2018-03-20T07:23:45.144Z,24.30
2018-03-20T07:24:45.106Z,24.80
2018-03-20T07:25:45.050Z,25.20
2018-03-20T07:26:45.021Z,24.10
2018-03-20T07:27:44.991Z,25.20
2018-03-20T07:28:44.922Z,25.80
2018-03-20T07:29:44.880Z,25.90
2018-03-20T07:30:44.836Z,25.20
2018-03-20T07:31:44.794Z,25.00
2018-03-20T07:32:44.748Z,25.10
2018-03-20T07:33:44.731Z,25.40
2018-03-20T07:34:44.660Z,26.30
2018-03-20T07:35:44.617Z,26.90
2018-03-20T07:36:44.566Z,27.30
2018-03-20T07:37:44.520Z,26.40
2018-03-20T07:38:44.476Z,26.80
2018-03-20T07:39:44.448Z,27.10
2018-03-20T07:40:44.391Z,26.80
2018-03-20T07:41:44.351Z,26.70
2018-03-20T07:42:44.296Z,25.60
2018-03-20T07:43:44.250Z,26.20
2018-03-20T07:44:44.238Z,25.20
2018-03-20T07:45:44.158Z,25.50
2018-03-20T07:46:44.123Z,26.20
2018-03-20T07:47:44.077Z,27.40
2018-03-20T07:48:44.030Z,27.30
2018-03-20T07:49:44.011Z,27.60
2018-03-20T07:50:43.954Z,28.30
2018-03-20T07:51:43.897Z,28.20
2018-03-20T07:52:43.853Z,29.70
2018-03-20T07:53:43.815Z,29.30
2018-03-20T07:54:43.795Z,30.00
2018-03-20T07:55:43.719Z,30.10
2018-03-20T07:56:43.730Z,31.20
2018-03-20T07:57:43.632Z,30.00
2018-03-20T07:58:43.594Z,31.60
2018-03-20T07:59:43.542Z,31.80
2018-03-20T08:00:43.520Z,31.60
2018-03-20T08:01:43.454Z,30.80
2018-03-20T08:02:43.418Z,32.80
2018-03-20T08:03:43.364Z,31.60
2018-03-20T08:04:43.324Z,32.00
2018-03-20T08:05:43.287Z,32.00
2018-03-20T08:06:43.251Z,32.60
2018-03-20T08:07:43.188Z,31.70
2018-03-20T08:08:43.151Z,32.60
2018-03-20T08:09:43.098Z,32.00
2018-03-20T08:10:43.066Z,32.80
2018-03-20T08:11:43.040Z,32.20
2018-03-20T08:12:42.966Z,33.40
2018-03-20T08:13:42.933Z,32.40
2018-03-20T08:14:42.873Z,34.00
2018-03-20T08:15:42.835Z,32.00
2018-03-20T08:16:42.791Z,34.40
2018-03-20T08:17:42.772Z,32.60
2018-03-20T08:18:42.709Z,33.00
2018-03-20T08:19:42.664Z,33.60
2018-03-20T08:20:42.622Z,32.80
2018-03-20T08:21:42.572Z,32.50
2018-03-20T08:22:42.530Z,33.70
2018-03-20T08:23:42.521Z,32.30
2018-03-20T08:24:42.444Z,32.80
2018-03-20T08:25:42.403Z,32.10
2018-03-20T08:26:42.353Z,33.60
2018-03-20T08:27:42.324Z,33.60
2018-03-20T08:28:43.192Z,33.20
2018-03-20T08:29:42.255Z,34.40
2018-03-20T08:30:42.194Z,34.30
2018-03-20T08:31:42.142Z,32.90
2018-03-20T08:32:42.561Z,33.30
2018-03-20T08:33:42.382Z,32.80
2018-03-20T08:34:51.857Z,31.90
2018-03-20T08:35:42.046Z,32.60
2018-03-20T08:36:42.694Z,32.40
2018-03-20T08:37:42.722Z,32.40
2018-03-20T08:38:41.879Z,31.30
2018-03-20T08:39:41.808Z,32.80
2018-03-20T08:40:41.788Z,33.30
2018-03-20T08:41:41.713Z,31.60
2018-03-20T08:42:41.675Z,32.10
2018-03-20T08:43:41.631Z,31.80
2018-03-20T08:44:41.582Z,32.50
2018-03-20T08:45:41.541Z,31.00
2018-03-20T08:46:41.536Z,28.90
2018-03-20T08:47:41.459Z,29.30
2018-03-20T08:48:41.419Z,27.50
2018-03-20T08:49:41.374Z,26.80
2018-03-20T08:50:41.338Z,25.20
2018-03-20T08:51:41.314Z,25.00
2018-03-20T08:52:41.253Z,23.50
2018-03-20T08:53:41.195Z,22.70
2018-03-20T08:54:41.153Z,20.30
2018-03-20T08:55:41.118Z,19.80
2018-03-20T08:56:41.126Z,19.40
2018-03-20T08:57:41.057Z,20.40
2018-03-20T08:58:40.987Z,18.80
2018-03-20T08:59:40.948Z,19.80
2018-03-20T09:00:40.915Z,17.50
2018-03-20T09:01:40.859Z,16.70
2018-03-20T09:02:40.816Z,16.30
2018-03-20T09:03:40.812Z,15.50
2018-03-20T09:04:40.739Z,15.40
2018-03-20T09:05:40.700Z,15.30
2018-03-20T09:06:40.658Z,14.60
2018-03-20T09:07:40.623Z,14.10
2018-03-20T09:08:40.598Z,14.10
2018-03-20T09:09:40.533Z,13.90
2018-03-20T09:10:40.494Z,14.50
2018-03-20T09:11:40.452Z,13.40
2018-03-20T09:12:40.419Z,12.70
2018-03-20T09:13:40.398Z,12.10
2018-03-20T09:14:40.356Z,11.90
2018-03-20T09:15:40.299Z,11.90
2018-03-20T09:16:40.257Z,11.90
2018-03-20T09:17:40.214Z,11.50
2018-03-20T09:18:40.177Z,10.90
2018-03-20T09:19:40.140Z,11.30
2018-03-20T09:20:40.130Z,10.40
2018-03-20T09:21:40.061Z,10.90
2018-03-20T09:22:40.027Z,10.80
2018-03-20T09:23:39.985Z,9.70
2018-03-20T09:24:39.947Z,9.60
2018-03-20T09:25:39.936Z,10.40
2018-03-20T09:26:39.866Z,9.90
2018-03-20T09:27:39.833Z,9.50
2018-03-20T09:28:39.795Z,10.20
2018-03-20T09:29:39.770Z,9.90
2018-03-20T09:30:39.724Z,9.60
2018-03-20T09:31:39.712Z,9.10
2018-03-20T09:32:39.640Z,9.20
2018-03-20T09:33:39.610Z,9.40
2018-03-20T09:34:39.565Z,8.70
2018-03-20T09:35:39.532Z,8.60
2018-03-20T09:36:39.493Z,9.00
2018-03-20T09:37:39.485Z,8.10
2018-03-20T09:38:39.416Z,8.50
2018-03-20T09:39:39.390Z,7.90
2018-03-20T09:40:39.341Z,8.50
2018-03-20T09:41:39.343Z,8.20
2018-03-20T09:42:39.270Z,8.20
2018-03-20T09:43:39.240Z,8.10
2018-03-20T09:44:39.208Z,7.40
2018-03-20T09:45:39.167Z,8.10
2018-03-20T09:46:39.129Z,7.30
2018-03-20T09:47:39.162Z,7.90
2018-03-20T09:48:39.061Z,7.40
2018-03-20T09:49:39.028Z,7.10
2018-03-20T09:50:38.994Z,7.20
2018-03-20T09:51:38.956Z,6.80
2018-03-20T09:52:38.927Z,6.70
2018-03-20T09:53:38.904Z,6.50
2018-03-20T09:54:38.859Z,6.40
2018-03-20T09:55:38.812Z,6.70
2018-03-20T09:56:38.781Z,6.20
2018-03-20T09:57:38.751Z,6.50
2018-03-20T09:58:38.742Z,5.70
2018-03-20T09:59:38.680Z,5.80
2018-03-20T10:00:38.650Z,4.70
2018-03-20T10:01:38.626Z,4.20
2018-03-20T10:02:38.581Z,4.20
2018-03-20T10:03:38.544Z,4.60
2018-03-20T10:04:38.543Z,4.70
2018-03-20T10:05:38.484Z,4.20
2018-03-20T10:06:38.451Z,4.50
2018-03-20T10:07:38.417Z,3.70
2018-03-20T10:08:38.370Z,4.40
2018-03-20T10:09:38.348Z,4.30
2018-03-20T10:10:38.327Z,3.90
2018-03-20T10:11:38.278Z,4.10
2018-03-20T10:12:38.244Z,3.20
2018-03-20T10:13:38.212Z,3.90
2018-03-20T10:14:38.173Z,3.60
2018-03-20T10:15:38.174Z,3.60
2018-03-20T10:16:38.103Z,3.10
2018-03-20T10:17:38.061Z,2.90
2018-03-20T10:18:38.036Z,3.50
2018-03-20T10:19:37.998Z,3.10
2018-03-20T10:20:37.969Z,3.30
2018-03-20T10:21:37.962Z,3.50
2018-03-20T10:22:37.903Z,3.40
2018-03-20T10:23:37.862Z,3.10
2018-03-20T10:24:37.834Z,3.50
2018-03-20T10:25:37.794Z,3.10
2018-03-20T10:26:37.759Z,3.10
2018-03-20T10:27:37.753Z,2.80
2018-03-20T10:28:37.695Z,2.70
2018-03-20T10:29:37.665Z,2.80
2018-03-20T10:30:37.620Z,2.90
2018-03-20T10:31:37.601Z,2.80
2018-03-20T10:32:37.584Z,2.50
2018-03-20T10:33:37.526Z,2.50
2018-03-20T10:34:37.495Z,2.50
2018-03-20T10:35:37.452Z,2.80
2018-03-20T10:36:37.418Z,2.60
2018-03-20T10:37:37.386Z,2.80
2018-03-20T10:38:37.385Z,2.60
2018-03-20T10:39:37.322Z,2.40
2018-03-20T10:40:37.280Z,2.40
2018-03-20T10:41:37.259Z,2.50
2018-03-20T10:42:37.223Z,2.30
2018-03-20T10:43:37.190Z,2.40
2018-03-20T10:44:37.173Z,2.30
2018-03-20T10:45:37.118Z,2.40
2018-03-20T10:46:37.081Z,2.30
2018-03-20T10:47:37.044Z,2.20
2018-03-20T10:48:37.026Z,2.10
2018-03-20T10:49:37.013Z,2.00
2018-03-20T10:50:36.947Z,2.20
2018-03-20T10:51:36.922Z,2.20
2018-03-20T10:52:36.886Z,2.20
2018-03-20T10:53:36.865Z,2.10
2018-03-20T10:54:36.820Z,2.10
2018-03-20T10:55:36.820Z,2.00
2018-03-20T10:56:36.752Z,2.20
2018-03-20T10:57:36.719Z,2.00
2018-03-20T10:58:36.691Z,1.80
2018-03-20T10:59:36.649Z,2.00
2018-03-20T11:00:36.618Z,2.10
2018-03-20T11:01:36.617Z,2.00
2018-03-20T11:02:36.552Z,2.10
2018-03-20T11:03:36.528Z,2.30
2018-03-20T11:04:36.476Z,2.00
2018-03-20T11:05:36.456Z,2.00
2018-03-20T11:06:36.422Z,2.00
2018-03-20T11:07:36.406Z,1.80
2018-03-20T11:08:36.347Z,2.10
2018-03-20T11:09:36.319Z,2.10
2018-03-20T11:10:36.286Z,1.60
2018-03-20T11:11:36.251Z,2.00
2018-03-20T11:12:36.236Z,2.10
2018-03-20T11:13:36.188Z,2.00
2018-03-20T11:14:36.154Z,2.10
2018-03-20T11:15:36.117Z,1.70
2018-03-20T11:16:36.087Z,1.80
2018-03-20T11:17:36.087Z,1.90
2018-03-20T11:18:36.026Z,2.10
2018-03-20T11:19:35.990Z,1.90
2018-03-20T11:20:35.954Z,1.60
2018-03-20T11:21:35.920Z,1.90
2018-03-20T11:22:35.916Z,1.70
2018-03-20T11:23:35.856Z,1.80
2018-03-20T11:24:35.876Z,2.00
2018-03-20T11:25:35.796Z,1.90
2018-03-20T11:26:35.766Z,1.70
2018-03-20T11:27:35.750Z,1.70
2018-03-20T11:28:35.691Z,1.80
2018-03-20T11:29:35.660Z,1.80
2018-03-20T11:30:35.629Z,1.70
2018-03-20T11:31:35.598Z,1.90
2018-03-20T11:32:35.579Z,1.70
2018-03-20T11:33:35.555Z,1.80
2018-03-20T11:34:35.495Z,1.80
2018-03-20T11:35:35.478Z,1.80
2018-03-20T11:36:35.435Z,1.80
2018-03-20T11:37:35.407Z,1.60
2018-03-20T11:38:35.373Z,1.80
2018-03-20T11:39:35.410Z,1.50
2018-03-20T11:40:35.299Z,1.90
2018-03-20T11:41:35.269Z,1.70
2018-03-20T11:42:35.247Z,1.80
2018-03-20T11:43:35.246Z,1.60
2018-03-20T11:44:35.184Z,1.70
2018-03-20T11:45:35.137Z,1.70
2018-03-20T11:46:35.120Z,1.60
2018-03-20T11:47:35.081Z,1.80
2018-03-20T11:48:35.045Z,1.70
2018-03-20T11:49:35.048Z,1.70
2018-03-20T11:50:34.972Z,1.70
2018-03-20T11:51:34.951Z,1.50
2018-03-20T11:52:34.916Z,1.40
2018-03-20T11:53:34.911Z,1.40
2018-03-20T11:54:34.857Z,1.60
2018-03-20T11:55:34.818Z,1.40
2018-03-20T11:56:34.782Z,1.50
2018-03-20T11:57:34.761Z,1.40
2018-03-20T11:58:34.718Z,1.40
2018-03-20T11:59:34.712Z,1.60
2018-03-20T12:00:34.668Z,1.50
2018-03-20T12:01:34.628Z,1.40
2018-03-20T12:02:34.593Z,1.80
2018-03-20T12:03:34.572Z,1.60
2018-03-20T12:04:34.552Z,1.30
2018-03-20T12:05:34.503Z,1.50
2018-03-20T12:06:34.472Z,1.50
2018-03-20T12:07:34.432Z,1.20
2018-03-20T12:08:34.399Z,1.40
2018-03-20T12:09:34.364Z,1.20
2018-03-20T12:10:34.361Z,1.40
2018-03-20T12:11:34.303Z,1.40
2018-03-20T12:12:34.275Z,1.40
2018-03-20T12:13:34.244Z,1.40
2018-03-20T12:14:34.205Z,1.50
2018-03-20T12:15:34.170Z,1.50
2018-03-20T12:16:34.176Z,1.30
2018-03-20T12:17:34.104Z,1.40
2018-03-20T12:18:34.082Z,1.20
2018-03-20T12:19:34.041Z,1.40
2018-03-20T12:20:34.005Z,1.20
2018-03-20T12:21:33.999Z,1.50
2018-03-20T12:22:33.941Z,1.10
2018-03-20T12:23:33.912Z,1.30
2018-03-20T12:24:33.882Z,1.50
2018-03-20T12:25:33.852Z,1.60
2018-03-20T12:26:33.816Z,1.40
2018-03-20T12:27:33.808Z,1.20
2018-03-20T12:28:33.752Z,1.20
2018-03-20T12:29:33.717Z,1.30
2018-03-20T12:30:33.689Z,1.30
2018-03-20T12:31:33.659Z,1.40
2018-03-20T12:32:33.645Z,1.10
2018-03-20T12:33:33.595Z,1.20
2018-03-20T12:34:33.555Z,1.30
2018-03-20T12:35:33.527Z,1.40
2018-03-20T12:36:33.494Z,1.40
2018-03-20T12:37:33.465Z,1.50
2018-03-20T12:38:33.449Z,1.30
2018-03-20T12:39:33.386Z,1.30
2018-03-20T12:40:33.361Z,1.20
2018-03-20T12:41:33.328Z,1.40
2018-03-20T12:42:33.301Z,1.40
2018-03-20T12:43:33.302Z,1.30
2018-03-20T12:44:33.235Z,1.40
2018-03-20T12:45:33.194Z,1.10
2018-03-20T12:46:33.231Z,1.30
2018-03-20T12:47:33.128Z,1.40
2018-03-20T12:48:33.102Z,1.30
2018-03-20T12:49:33.104Z,1.20
2018-03-20T12:50:33.038Z,1.40
2018-03-20T12:51:33.005Z,1.20
2018-03-20T12:52:32.982Z,1.30
2018-03-20T12:53:32.926Z,1.10
2018-03-20T12:54:32.932Z,1.10
2018-03-20T12:55:32.912Z,1.40
2018-03-20T12:56:32.851Z,1.10
2018-03-20T12:57:32.811Z,1.40
2018-03-20T12:58:32.772Z,1.10
2018-03-20T12:59:32.743Z,1.20
2018-03-20T13:00:32.702Z,1.30
2018-03-20T13:01:32.685Z,1.40
2018-03-20T13:02:32.640Z,1.20
2018-03-20T13:03:32.601Z,1.50
2018-03-20T13:04:32.575Z,1.30
2018-03-20T13:05:32.539Z,1.30